Coloma, MI (49039)

6:57 AM EST on February 06, 2016 (GMT -0500)
East Paw Paw Lake | | Change Station
CLOSE
Current Station
Personal Weather Station
Location: Watervliet, MI
Elevation: 663 ft
Nearby Weather Stations

Elev 663 ft 42.21 °N, 86.25 °W | Updated 3 seconds ago

Overcast
Overcast
25.7 °F
Feels Like 26 °F
N
3.0
Wind Variable Wind from South
Gusts 3.0 mph

Today
High -- | Low -- °F
--% Chance of Precip.
Yesterday
High -- | Low -- °F
Precip. -- in
Pressure 30.31 in
Visibility 4.0 miles
Clouds Overcast 7000 ft
Windchill 26 °F
Dew Point 24 °F
Humidity 93%
Rainfall 0.00 in
Snow Depth Not available.
7:53 AM 6:05 PM
Waning Crescent, 6% visible
METAR KBEH 061153Z AUTO 18005KT 4SM BR OVC070 M03/M05 A3028 RMK AO2 SLP263 70001 T10331050 11028 21039 50002
Pressure 30.31 in
Visibility 4.0 miles
Clouds Overcast 7000 ft
Windchill 26 °F
Dew Point 24 °F
Humidity 93%
Rainfall 0.00 in
Snow Depth Not available.
7:53 AM 6:05 PM
Waning Crescent, 6% visible
METAR KBEH 061153Z AUTO 18005KT 4SM BR OVC070 M03/M05 A3028 RMK AO2 SLP263 70001 T10331050 11028 21039 50002

10-Day Weather Forecast

Almanac

Astronomy

Feb. 06, 2016 Rise Set
Actual Time
Civil Twilight
Nautical Twilight
Astronomical Twilight
Moon
Length of Visible Light
Length of Day
Tomorrow will be .
, % of the Moon is Illuminated

Today's Extremes

State Highs State Lows

Community

WunderPhotos

Upload Photos

1,890,944 photos uploaded!

WunderBlog® & News

Nearby

Air Quality

  Air Quality AQ Index Pollutant
Not available.

Snow Depth

Station Depth Elevation

Earthquake Activity

City Distance Mag. Time & Date
Minimum magnitude displayed is 2.5.

Coastal Water Temperatures

Place Temperature

Stations

Nearby Weather Stations

Station Location Temp. Windchill Dew Point Humidity Wind Precip. Elev Updated Type
                   

Watches & Warnings

There are currently no watches in effect.